Dardanelle, Arkansas
Current Conditions -  °F | °C
As of 2:53 AM on Monday 24 Nov 2014 (Local Time) from KRUE Reporting Station
Overcast Overcast  
Wind Chill: 43°   Ceiling: 3800
Heat Index: 48°   Visibility: 10mi
Dew Point: 37°   Wind: 10mph
Humidity: 66%   Direction: 310°NW
Pressure: 29.66"   Gusts: 22mph
Location:  35.22°N, 93.16°W
Report Text: KRUE 240853Z AUTO 31009G19KT 10SM BKN038 OVC085 09/03 A2966 RMK AO2 PK WND 29027/0818 PRESRR SLP038 T00890028 53052
Loading
Personal Weather Stations






























Interactive Weather Map New forecast layout! Learn more

10-Day Weather Forecast

Advertisements
Track Severe Weather on mobile